Time;durP1;ratioP1;P1;durP2;ratioP2;P2;SDS_P1;SDS_P2;PMS_P1;PMS_P2;Temp;Humidity;BMP_temperature;BMP_pressure;BME280_temperature;BME280_humidity;BME280_pressure;Samples;Min_cycle;Max_cycle;Signal;HPM_P1;HPM_P2
2022/05/22 00:02:22;;;;;;;7.17;3.15;;;;;;;12.87;61.94;96495.56;1795334;80;20955;-84
2022/05/22 00:04:48;;;;;;;5.12;2.35;;;;;;;12.84;61.79;96493.81;1792702;80;21079;-84
2022/05/22 00:07:14;;;;;;;4.47;2.52;;;;;;;12.82;62.47;96497.92;1792518;80;21071;-84
2022/05/22 00:09:40;;;;;;;3.83;2.10;;;;;;;12.76;62.08;96494.79;1790864;80;21457;-85
2022/05/22 00:12:08;;;;;;;3.55;1.90;;;;;;;12.76;62.63;96490.88;1795845;80;20944;-84
2022/05/22 00:14:33;;;;;;;4.15;2.08;;;;;;;12.77;62.66;96496.40;1768360;81;20960;-85
2022/05/22 00:16:59;;;;;;;3.45;1.82;;;;;;;12.76;62.88;96493.48;1776349;80;21416;-85
2022/05/22 00:19:27;;;;;;;3.65;2.05;;;;;;;12.76;63.02;96488.77;1768229;81;20980;-84
2022/05/22 00:21:53;;;;;;;2.85;1.77;;;;;;;12.74;63.35;96490.77;1800414;79;21005;-84
2022/05/22 00:24:22;;;;;;;4.50;2.08;;;;;;;12.69;63.41;96492.66;1798502;80;20968;-85
2022/05/22 00:26:48;;;;;;;2.22;1.72;;;;;;;12.63;63.36;96485.58;1786516;80;20999;-85
2022/05/22 00:29:15;;;;;;;6.37;2.98;;;;;;;12.58;63.53;96484.86;1786438;80;21000;-84
2022/05/22 00:31:42;;;;;;;3.15;1.80;;;;;;;12.55;63.73;96480.54;1786456;80;20961;-85
2022/05/22 00:34:08;;;;;;;4.40;1.90;;;;;;;12.52;64.03;96477.79;1799403;80;21007;-84
2022/05/22 00:36:34;;;;;;;2.98;2.37;;;;;;;12.51;64.26;96478.78;1768082;81;21043;-85
2022/05/22 00:38:59;;;;;;;2.47;1.95;;;;;;;12.50;63.97;96477.67;1769668;80;20999;-85
2022/05/22 00:41:26;;;;;;;3.50;2.30;;;;;;;12.48;64.46;96476.56;1800932;80;20995;-84
2022/05/22 00:43:53;;;;;;;5.53;2.27;;;;;;;12.49;64.28;96474.77;1767912;81;20987;-84
2022/05/22 00:46:21;;;;;;;3.65;2.22;;;;;;;12.52;63.89;96478.29;1801024;80;21369;-84
2022/05/22 00:48:50;;;;;;;4.08;2.00;;;;;;;12.57;63.98;96472.02;1768147;81;21004;-84
2022/05/22 00:51:33;;;;;;;4.92;2.10;;;;;;;12.62;64.13;96473.55;1801067;80;21059;-84
2022/05/22 00:54:16;;;;;;;4.30;2.35;;;;;;;12.66;64.42;96478.67;1767790;81;21425;-85
2022/05/22 00:56:46;;;;;;;4.30;3.10;;;;;;;12.67;63.91;96472.46;1801001;80;21360;-85
2022/05/22 00:59:17;;;;;;;4.97;3.08;;;;;;;12.67;63.72;96480.28;1768295;80;20933;-84
2022/05/22 01:01:42;;;;;;;6.15;4.00;;;;;;;12.66;63.67;96474.77;1764165;80;20973;-85
2022/05/22 01:04:13;;;;;;;4.15;2.80;;;;;;;12.68;63.45;96473.27;1783543;80;20979;-84
2022/05/22 01:06:39;;;;;;;4.20;2.92;;;;;;;12.68;63.27;96474.57;1768624;80;21048;-84
2022/05/22 01:09:05;;;;;;;3.17;2.20;;;;;;;12.69;63.57;96473.10;1795130;79;21135;-85
2022/05/22 01:11:34;;;;;;;5.28;2.65;;;;;;;12.71;63.46;96483.34;1780915;80;21056;-84
2022/05/22 01:14:09;;;;;;;4.75;2.47;;;;;;;12.69;63.26;96480.92;1767291;80;20996;-84
2022/05/22 01:16:35;;;;;;;5.05;3.45;;;;;;;12.68;63.19;96471.47;1766224;81;21023;-84
2022/05/22 01:19:03;;;;;;;7.10;5.42;;;;;;;12.67;63.21;96475.07;1766561;81;21338;-85
2022/05/22 01:21:31;;;;;;;13.15;7.58;;;;;;;12.64;63.35;96478.06;1744696;79;20976;-84
2022/05/22 01:23:57;;;;;;;14.73;10.08;;;;;;;12.61;63.40;96477.95;1820211;78;20984;-85
2022/05/22 01:26:25;;;;;;;7.72;5.03;;;;;;;12.60;63.67;96472.44;1820140;78;20940;-85
2022/05/22 01:28:51;;;;;;;6.80;4.53;;;;;;;12.63;63.60;96480.37;1820113;79;21008;-86
2022/05/22 01:31:17;;;;;;;16.15;10.18;;;;;;;12.67;63.52;96472.96;1819019;78;20964;-85
2022/05/22 01:33:43;;;;;;;9.48;6.85;;;;;;;12.69;64.01;96471.80;1801201;79;20976;-85
2022/05/22 01:36:09;;;;;;;8.63;5.67;;;;;;;12.69;63.87;96475.71;1820416;78;20975;-84
2022/05/22 01:38:35;;;;;;;4.33;3.55;;;;;;;12.66;64.31;96476.07;1820367;79;21003;-85
2022/05/22 01:41:01;;;;;;;3.87;2.65;;;;;;;12.62;64.61;96470.94;1820480;79;21040;-85
2022/05/22 01:43:27;;;;;;;4.42;2.65;;;;;;;12.57;64.72;96470.22;1792447;79;21012;-85
2022/05/22 01:45:54;;;;;;;6.05;2.45;;;;;;;12.52;64.71;96466.06;1812778;79;21111;-84
2022/05/22 01:48:22;;;;;;;4.25;2.52;;;;;;;12.49;65.12;96466.95;1812842;79;21014;-85
2022/05/22 01:50:48;;;;;;;3.55;2.65;;;;;;;12.42;65.10;96467.42;1816025;79;21039;-85
2022/05/22 01:53:15;;;;;;;3.72;2.37;;;;;;;12.35;65.43;96464.75;1820263;78;21352;-84
2022/05/22 01:55:41;;;;;;;5.67;2.10;;;;;;;12.28;65.49;96462.61;1820330;79;21014;-85
2022/05/22 01:58:07;;;;;;;5.20;1.95;;;;;;;12.23;65.82;96464.98;1820687;78;20936;-85
2022/05/22 02:00:33;;;;;;;5.15;3.00;;;;;;;12.20;65.86;96467.48;1820113;78;21010;-84
2022/05/22 02:02:59;;;;;;;7.72;3.17;;;;;;;12.20;65.59;96459.66;1779466;81;21012;-86
2022/05/22 02:05:25;;;;;;;4.58;2.90;;;;;;;12.20;65.61;96462.73;1779192;79;21044;-85
2022/05/22 02:10:36;;;;;;;4.25;3.25;;;;;;;12.19;65.22;96455.92;1779188;79;21044;-86
2022/05/22 02:13:02;;;;;;;4.58;3.20;;;;;;;12.20;65.27;96455.76;1779356;80;21012;-86
2022/05/22 02:15:28;;;;;;;6.35;3.65;;;;;;;12.20;65.27;96450.55;1779487;79;21036;-86
2022/05/22 02:17:54;;;;;;;3.45;3.02;;;;;;;12.17;65.26;96453.50;1779479;81;20988;-86
2022/05/22 02:20:20;;;;;;;4.65;3.08;;;;;;;12.16;65.35;96449.30;1779391;79;20949;-86
2022/05/22 02:22:49;;;;;;;4.62;3.05;;;;;;;12.16;65.27;96443.28;1812335;79;21001;-86
2022/05/22 02:25:19;;;;;;;4.75;2.90;;;;;;;12.14;65.29;96451.78;1812701;79;20988;-86
2022/05/22 02:27:45;;;;;;;6.10;3.02;;;;;;;12.13;65.29;96451.48;1812680;79;21045;-85
2022/05/22 02:30:14;;;;;;;3.30;2.80;;;;;;;12.02;65.26;96432.77;1819733;79;21000;-85
2022/05/22 02:32:40;;;;;;;4.72;3.22;;;;;;;12.16;65.08;96451.90;1767650;80;21339;-85
2022/05/22 02:35:08;;;;;;;4.05;3.00;;;;;;;12.16;65.21;96455.81;1766495;81;20980;-85
2022/05/22 02:37:46;;;;;;;7.30;3.45;;;;;;;12.15;65.26;96456.00;1786559;80;21030;-84
2022/05/22 02:40:12;;;;;;;4.55;3.15;;;;;;;12.19;65.46;96457.22;1786761;79;21019;-84
2022/05/22 02:42:40;;;;;;;7.35;4.47;;;;;;;12.20;65.43;96462.73;1779518;80;20972;-85
2022/05/22 02:45:07;;;;;;;5.85;3.65;;;;;;;12.18;65.49;96459.02;1807331;79;21015;-84
2022/05/22 02:47:34;;;;;;;4.53;3.60;;;;;;;12.17;65.43;96450.91;1820308;78;21014;-85
2022/05/22 02:49:59;;;;;;;5.37;3.22;;;;;;;12.16;65.54;96453.70;1790575;78;20968;-84
2022/05/22 02:52:25;;;;;;;6.80;3.47;;;;;;;12.12;65.39;96453.28;1786793;79;21418;-84
2022/05/22 02:54:51;;;;;;;6.25;3.70;;;;;;;12.12;65.40;96455.08;1812769;79;20980;-84
2022/05/22 02:57:21;;;;;;;7.80;3.47;;;;;;;12.13;65.64;96453.59;1820199;79;20940;-85
2022/05/22 02:59:44;;;;;;;4.65;3.00;;;;;;;12.14;65.47;96463.51;1807466;79;20948;-85
2022/05/22 03:02:10;;;;;;;4.80;4.22;;;;;;;12.15;65.45;96456.80;1820228;78;20991;-85
2022/05/22 03:04:36;;;;;;;7.75;3.10;;;;;;;12.18;65.61;96460.83;1819529;78;20960;-85
2022/05/22 03:07:02;;;;;;;5.45;3.65;;;;;;;12.22;65.59;96466.79;1820405;78;21323;-85
2022/05/22 03:09:28;;;;;;;5.53;3.70;;;;;;;12.22;65.61;96459.47;1821346;78;21081;-85
2022/05/22 03:11:54;;;;;;;6.00;3.87;;;;;;;12.21;65.59;96455.26;1828490;78;21330;-85
2022/05/22 03:14:20;;;;;;;6.40;3.40;;;;;;;12.19;66.05;96455.42;1828384;78;21365;-86
2022/05/22 03:16:46;;;;;;;4.55;3.05;;;;;;;12.18;65.91;96451.70;1828413;78;21051;-85
2022/05/22 03:19:13;;;;;;;6.30;3.35;;;;;;;12.14;65.94;96454.39;1827354;78;21040;-86
2022/05/22 03:21:41;;;;;;;7.08;3.90;;;;;;;12.13;65.88;96437.16;1827890;78;20999;-86
2022/05/22 03:24:08;;;;;;;6.85;3.33;;;;;;;12.13;66.24;96438.45;1828314;78;21085;-86
2022/05/22 03:26:33;;;;;;;4.25;3.72;;;;;;;12.11;66.21;96435.23;1828354;78;21023;-85
2022/05/22 03:28:59;;;;;;;6.62;3.83;;;;;;;12.11;66.42;96439.14;1828184;78;21393;-86
2022/05/22 03:31:25;;;;;;;4.92;3.22;;;;;;;12.12;66.27;96431.14;1828320;78;20991;-86
2022/05/22 03:33:51;;;;;;;6.40;3.25;;;;;;;12.14;66.29;96431.75;1806248;78;20945;-85
2022/05/22 03:36:17;;;;;;;4.58;3.27;;;;;;;12.18;66.27;96432.17;1810452;78;20976;-86
2022/05/22 03:38:42;;;;;;;6.83;3.37;;;;;;;12.25;66.48;96434.34;1828392;78;21337;-86
2022/05/22 03:41:08;;;;;;;5.70;3.05;;;;;;;12.27;66.61;96434.45;1828256;78;21035;-86
2022/05/22 03:43:34;;;;;;;8.70;3.87;;;;;;;12.32;66.64;96429.96;1828303;78;20994;-86
2022/05/22 03:46:00;;;;;;;7.67;4.03;;;;;;;12.33;66.74;96431.07;1818562;78;20949;-86
2022/05/22 03:48:25;;;;;;;4.47;3.65;;;;;;;12.34;66.67;96430.58;1796871;79;21477;-86
2022/05/22 03:50:51;;;;;;;4.70;3.42;;;;;;;12.35;66.83;96432.67;1796624;79;21004;-85
2022/05/22 03:53:17;;;;;;;6.28;3.60;;;;;;;12.32;66.73;96428.16;1796766;79;21021;-85
2022/05/22 03:55:43;;;;;;;4.35;3.33;;;;;;;12.32;66.90;96433.37;1798946;78;21049;-84
2022/05/22 03:58:10;;;;;;;5.20;3.45;;;;;;;12.27;66.76;96436.25;1828465;78;21373;-84
2022/05/22 04:00:36;;;;;;;5.75;3.58;;;;;;;12.23;66.89;96439.74;1828264;78;20928;-85
2022/05/22 04:03:02;;;;;;;8.35;4.37;;;;;;;12.26;67.08;96445.06;1828217;78;20968;-85
2022/05/22 04:05:27;;;;;;;8.68;3.35;;;;;;;12.30;67.11;96441.87;1828373;78;20990;-85
2022/05/22 04:07:53;;;;;;;4.85;2.90;;;;;;;12.32;66.80;96448.20;1828416;78;20968;-85
2022/05/22 04:10:19;;;;;;;5.03;3.20;;;;;;;12.36;67.13;96449.42;1802899;78;21388;-85
2022/05/22 04:12:45;;;;;;;4.45;3.00;;;;;;;12.36;66.88;96450.72;1828108;78;20995;-85
2022/05/22 04:15:16;;;;;;;11.22;8.90;;;;;;;12.36;66.65;96453.33;1812662;78;21015;-85
2022/05/22 04:17:42;;;;;;;86.25;47.15;;;;;;;12.38;66.96;96449.26;1820506;78;20951;-85
2022/05/22 04:20:08;;;;;;;35.38;19.77;;;;;;;12.40;67.25;96451.17;1814849;78;20980;-85
2022/05/22 04:25:10;;;;;;;27.20;17.60;;;;;;;12.38;67.30;96446.66;1796640;78;21322;-85
2022/05/22 04:25:11;;;;;;;13.32;8.10;;;;;;;12.36;67.00;96449.42;1794744;80;21036;-85
2022/05/22 04:27:39;;;;;;;7.65;3.95;;;;;;;12.37;67.00;96456.27;1817868;78;20944;-85
2022/05/22 04:30:07;;;;;;;4.95;3.52;;;;;;;12.42;66.95;96452.59;1827682;78;20991;-85
2022/05/22 04:32:33;;;;;;;8.15;4.08;;;;;;;12.45;66.80;96450.89;1828317;78;20975;-85
2022/05/22 04:34:58;;;;;;;6.75;4.22;;;;;;;12.48;67.29;96452.31;1828172;78;21006;-85
2022/05/22 04:37:24;;;;;;;9.25;5.12;;;;;;;12.52;67.24;96447.81;1828133;78;20943;-85
2022/05/22 04:39:50;;;;;;;6.33;4.45;;;;;;;12.56;67.34;96446.95;1826420;78;21041;-84
2022/05/22 04:42:15;;;;;;;10.08;5.62;;;;;;;12.57;67.14;96441.55;1809127;78;21326;-84
2022/05/22 04:44:41;;;;;;;7.90;4.75;;;;;;;12.57;67.19;96441.55;1828386;78;20953;-84
2022/05/22 04:47:07;;;;;;;7.37;4.85;;;;;;;12.57;67.18;96440.75;1823941;78;20943;-85
2022/05/22 04:49:33;;;;;;;5.78;3.08;;;;;;;12.57;66.91;96445.45;1794645;80;20892;-84
2022/05/22 04:51:59;;;;;;;6.72;4.40;;;;;;;12.61;67.04;96446.67;1799155;80;20944;-85
2022/05/22 04:54:25;;;;;;;6.90;4.53;;;;;;;12.69;67.18;96442.29;1799404;80;21453;-84
2022/05/22 04:56:53;;;;;;;9.18;6.12;;;;;;;12.78;67.19;96442.45;1799508;80;21054;-84
2022/05/22 04:59:19;;;;;;;6.80;5.05;;;;;;;12.84;67.00;96443.77;1774007;80;21035;-85
2022/05/22 05:01:45;;;;;;;6.35;5.22;;;;;;;12.89;66.94;96437.49;1770967;79;21034;-86
2022/05/22 05:04:11;;;;;;;5.50;3.98;;;;;;;12.92;66.81;96441.51;1800496;78;21015;-86
2022/05/22 05:06:37;;;;;;;4.30;3.15;;;;;;;12.93;67.05;96437.90;1827384;78;21020;-86
2022/05/22 05:09:04;;;;;;;11.80;5.37;;;;;;;12.94;66.46;96436.90;1798526;79;20995;-86
2022/05/22 05:11:29;;;;;;;8.35;4.28;;;;;;;12.94;66.59;96436.90;1775570;79;20989;-86
2022/05/22 05:13:55;;;;;;;8.38;4.28;;;;;;;12.99;66.86;96433.20;1767263;81;21031;-86
2022/05/22 05:16:22;;;;;;;5.60;3.40;;;;;;;13.06;67.00;96426.22;1771043;80;21336;-85
2022/05/22 05:18:47;;;;;;;7.65;5.33;;;;;;;13.11;66.80;96422.51;1783912;80;20979;-87
2022/05/22 05:21:15;;;;;;;7.65;4.95;;;;;;;13.14;66.67;96422.11;1780781;80;21082;-85
2022/05/22 05:23:41;;;;;;;7.05;3.90;;;;;;;13.19;66.38;96419.77;1757395;80;20913;-86
2022/05/22 05:26:08;;;;;;;5.22;3.67;;;;;;;13.29;66.71;96412.85;1789940;80;21086;-85
2022/05/22 05:28:33;;;;;;;6.55;3.25;;;;;;;13.40;66.79;96412.78;1784025;80;20974;-85
2022/05/22 05:30:59;;;;;;;9.98;3.72;;;;;;;13.44;66.18;96408.77;1783764;80;20988;-85
2022/05/22 05:33:26;;;;;;;5.72;4.10;;;;;;;13.52;66.18;96413.81;1787359;80;21416;-85
2022/05/22 05:35:51;;;;;;;18.45;10.13;;;;;;;13.59;66.10;96416.42;1781681;80;20931;-85
2022/05/22 05:38:17;;;;;;;32.25;12.82;;;;;;;13.56;65.63;96421.54;1777168;80;21022;-85
2022/05/22 05:40:44;;;;;;;11.18;5.55;;;;;;;13.53;65.65;96428.47;1787986;80;21469;-85
2022/05/22 05:43:10;;;;;;;5.08;3.80;;;;;;;13.51;65.64;96429.17;1784611;80;21034;-85
2022/05/22 05:45:36;;;;;;;15.28;10.20;;;;;;;13.47;65.79;96438.38;1774289;80;21086;-85
2022/05/22 05:48:01;;;;;;;6.25;3.77;;;;;;;13.50;65.99;96431.45;1780611;80;21425;-85
2022/05/22 05:50:27;;;;;;;6.00;4.15;;;;;;;13.56;65.70;96429.88;1778179;80;21039;-85
2022/05/22 05:52:56;;;;;;;7.80;3.87;;;;;;;13.54;65.15;96433.19;1788037;80;20939;-84
2022/05/22 05:55:22;;;;;;;6.12;3.62;;;;;;;13.51;65.41;96428.67;1779796;80;21035;-85
2022/05/22 05:57:48;;;;;;;6.25;3.10;;;;;;;13.51;65.07;96428.67;1783811;80;21074;-86
2022/05/22 06:00:17;;;;;;;6.30;3.10;;;;;;;13.48;64.70;96428.23;1784461;79;21359;-84
2022/05/22 06:02:43;;;;;;;4.87;2.77;;;;;;;13.43;64.68;96437.17;1781396;80;20956;-85
2022/05/22 06:05:10;;;;;;;4.50;2.60;;;;;;;13.37;64.59;96430.14;1786508;80;21018;-84
2022/05/22 06:07:36;;;;;;;4.70;2.33;;;;;;;13.38;65.25;96436.97;1785537;80;21044;-84
2022/05/22 06:10:03;;;;;;;5.22;2.55;;;;;;;13.45;66.01;96440.39;1761018;78;20995;-85
2022/05/22 06:12:29;;;;;;;20.12;9.50;;;;;;;13.56;65.09;96435.09;1798352;80;20979;-84
2022/05/22 06:14:55;;;;;;;10.95;5.03;;;;;;;13.67;65.03;96439.73;1810704;78;21041;-85
2022/05/22 06:17:33;;;;;;;16.15;8.98;;;;;;;13.70;64.92;96441.95;1795551;78;20958;-85
2022/05/22 06:19:59;;;;;;;10.80;6.22;;;;;;;13.69;64.25;96449.48;1800356;78;21300;-85
2022/05/22 06:22:27;;;;;;;10.00;5.45;;;;;;;13.67;64.49;96444.45;1810814;78;21034;-85
2022/05/22 06:24:53;;;;;;;14.38;8.33;;;;;;;13.70;64.61;96444.55;1800482;78;21039;-85
2022/05/22 06:27:20;;;;;;;12.93;7.42;;;;;;;13.71;64.25;96439.13;1775604;80;21040;-85
2022/05/22 06:29:46;;;;;;;4.95;2.85;;;;;;;13.73;63.82;96442.84;1796712;80;21425;-85
2022/05/22 06:32:13;;;;;;;8.65;4.62;;;;;;;13.68;63.42;96436.13;1811973;78;21015;-85
2022/05/22 06:34:41;;;;;;;12.05;7.17;;;;;;;13.66;63.96;96435.49;1821188;78;21393;-85
2022/05/22 06:37:12;;;;;;;15.13;13.53;;;;;;;13.67;64.30;96434.52;1825136;78;21000;-85
2022/05/22 06:39:50;;;;;;;20.45;17.37;;;;;;;13.73;64.89;96437.62;1824551;78;20982;-85
2022/05/22 06:42:24;;;;;;;13.83;7.40;;;;;;;13.80;64.82;96427.97;1797231;79;21259;-85
2022/05/22 06:44:59;;;;;;;13.55;6.78;;;;;;;13.81;64.16;96431.69;1796118;80;21380;-85
2022/05/22 06:47:28;;;;;;;18.30;9.38;;;;;;;13.80;64.27;96434.00;1793837;80;21347;-85
2022/05/22 06:49:54;;;;;;;6.05;3.37;;;;;;;13.81;64.48;96431.69;1797244;80;20994;-85
2022/05/22 06:52:19;;;;;;;4.87;3.20;;;;;;;13.88;63.86;96426.98;1798406;79;21255;-84
2022/05/22 06:54:45;;;;;;;6.00;2.70;;;;;;;13.94;63.90;96426.17;1807047;79;20966;-85
2022/05/22 06:57:15;;;;;;;6.80;4.25;;;;;;;14.07;63.50;96416.52;1807115;79;21093;-85
2022/05/22 06:59:41;;;;;;;3.62;2.98;;;;;;;14.20;64.13;96420.94;1807900;79;21007;-85
2022/05/22 07:02:07;;;;;;;4.85;3.42;;;;;;;14.21;63.48;96422.55;1805618;78;21412;-85
2022/05/22 07:04:33;;;;;;;7.60;4.42;;;;;;;14.19;63.75;96427.68;1797326;79;20983;-85
2022/05/22 07:06:59;;;;;;;8.60;4.75;;;;;;;14.21;63.45;96426.97;1803286;79;21061;-86
2022/05/22 07:09:25;;;;;;;5.85;2.92;;;;;;;14.28;63.87;96426.44;1807873;79;21018;-84
2022/05/22 07:11:54;;;;;;;5.17;2.92;;;;;;;14.33;63.38;96426.15;1807886;79;21489;-85
2022/05/22 07:14:18;;;;;;;4.72;2.30;;;;;;;14.30;62.78;96417.39;1807259;79;21349;-85
2022/05/22 07:16:44;;;;;;;5.17;2.72;;;;;;;14.23;63.20;96421.83;1806767;79;21033;-85
2022/05/22 07:19:12;;;;;;;6.15;2.87;;;;;;;14.21;63.02;96417.31;1804175;79;21050;-85
2022/05/22 07:21:40;;;;;;;8.15;3.10;;;;;;;14.26;63.10;96421.42;1807339;79;21364;-86
2022/05/22 07:24:07;;;;;;;13.50;8.38;;;;;;;14.20;63.23;96426.17;1807404;79;21480;-84
2022/05/22 07:26:32;;;;;;;9.45;6.28;;;;;;;14.15;63.14;96425.14;1807556;79;20986;-85
2022/05/22 07:29:01;;;;;;;5.95;3.67;;;;;;;14.12;63.52;96435.00;1806869;79;21004;-85
2022/05/22 07:31:27;;;;;;;7.15;3.37;;;;;;;14.05;62.86;96431.60;1804634;79;21026;-84
2022/05/22 07:33:53;;;;;;;6.47;3.10;;;;;;;14.06;62.54;96433.20;1806688;79;21051;-84
2022/05/22 07:36:20;;;;;;;4.70;2.25;;;;;;;14.11;62.68;96425.56;1807172;79;21461;-84
2022/05/22 07:38:46;;;;;;;7.05;2.67;;;;;;;14.15;62.13;96422.03;1807156;79;21392;-84
2022/05/22 07:41:12;;;;;;;10.40;6.92;;;;;;;14.18;62.32;96426.87;1806360;79;20987;-84
2022/05/22 07:43:39;;;;;;;6.50;3.12;;;;;;;14.28;62.55;96422.02;1806987;79;21057;-85
2022/05/22 07:46:06;;;;;;;5.47;2.77;;;;;;;14.33;62.40;96427.45;1809296;79;20939;-85
2022/05/22 07:48:32;;;;;;;4.10;2.45;;;;;;;14.35;62.00;96425.44;1807406;79;20959;-85
2022/05/22 07:50:59;;;;;;;3.40;1.67;;;;;;;14.31;61.90;96426.83;1806715;79;20986;-85
2022/05/22 07:53:26;;;;;;;4.60;1.35;;;;;;;14.33;61.02;96430.08;1805135;79;21967;-84
2022/05/22 07:55:52;;;;;;;2.52;1.50;;;;;;;14.33;60.22;96439.73;1804513;79;21074;-85
2022/05/22 07:58:18;;;;;;;3.00;1.22;;;;;;;14.15;59.97;96419.42;1805369;79;21015;-85
2022/05/22 08:00:44;;;;;;;4.83;1.65;;;;;;;14.00;60.14;96413.13;1804428;78;20939;-85
2022/05/22 08:03:13;;;;;;;4.37;2.20;;;;;;;14.06;60.53;96427.18;1803006;79;21037;-86
2022/05/22 08:05:39;;;;;;;4.47;1.62;;;;;;;14.12;61.41;96429.77;1799592;79;21337;-85
2022/05/22 08:08:05;;;;;;;3.15;1.42;;;;;;;14.17;60.51;96428.39;1806857;79;21018;-86
2022/05/22 08:10:31;;;;;;;6.25;1.45;;;;;;;14.22;60.53;96437.22;1804619;79;20967;-85
2022/05/22 08:12:57;;;;;;;4.92;1.92;;;;;;;14.32;60.55;96425.05;1807085;79;20948;-86
2022/05/22 08:15:26;;;;;;;3.75;1.47;;;;;;;14.39;60.20;96425.33;1801708;79;20971;-85
2022/05/22 08:17:51;;;;;;;2.47;1.20;;;;;;;14.48;60.50;96422.50;1806189;79;21022;-85
2022/05/22 08:20:19;;;;;;;3.80;1.40;;;;;;;14.56;60.78;96425.72;1807413;79;21278;-85
2022/05/22 08:22:45;;;;;;;2.05;1.05;;;;;;;14.61;60.22;96415.44;1807234;79;20964;-86
2022/05/22 08:25:16;;;;;;;4.47;1.65;;;;;;;14.66;60.59;96418.26;1807371;79;20991;-85
2022/05/22 08:27:42;;;;;;;2.47;1.70;;;;;;;14.67;59.32;96411.22;1807431;79;21563;-87
2022/05/22 08:30:11;;;;;;;4.97;1.52;;;;;;;14.58;58.95;96418.97;1807511;79;21043;-86
2022/05/22 08:32:38;;;;;;;4.55;1.37;;;;;;;14.58;59.80;96411.93;1789012;79;21046;-86
2022/05/22 08:35:06;;;;;;;4.80;1.67;;;;;;;14.69;60.23;96410.00;1778788;79;20966;-86
2022/05/22 08:37:33;;;;;;;3.40;1.60;;;;;;;14.79;59.01;96408.73;1772484;81;21337;-86
2022/05/22 08:40:00;;;;;;;5.03;1.60;;;;;;;14.88;59.13;96412.23;1801504;79;20967;-86
2022/05/22 08:42:34;;;;;;;3.65;1.77;;;;;;;14.93;58.40;96403.25;1781079;79;21002;-86
2022/05/22 08:45:00;;;;;;;4.58;1.62;;;;;;;14.99;58.44;96394.58;1768930;81;21357;-86
2022/05/22 08:47:34;;;;;;;5.72;2.12;;;;;;;15.11;58.58;96395.21;1774697;79;20966;-86
2022/05/22 08:50:08;;;;;;;4.47;1.42;;;;;;;15.22;58.98;96390.13;1789596;79;21010;-86
2022/05/22 08:52:51;;;;;;;3.72;1.70;;;;;;;15.30;58.37;96393.81;1785538;79;21370;-86
2022/05/22 08:58:56;;;;;;;3.52;1.80;;;;;;;15.25;58.85;96394.13;1804588;79;21393;-85
2022/05/22 09:01:06;;;;;;;6.40;1.60;;;;;;;15.03;58.38;96381.08;1775066;80;21098;-86
2022/05/22 09:03:50;;;;;;;3.98;2.15;;;;;;;14.95;58.94;96393.38;1778635;80;22320;-85
2022/05/22 09:06:16;;;;;;;3.92;1.57;;;;;;;14.98;59.27;96388.25;1789313;80;21362;-85
2022/05/22 09:08:45;;;;;;;3.70;1.42;;;;;;;14.99;59.46;96393.28;1714232;80;21878;-85
2022/05/22 09:11:46;;;;;;;4.00;1.30;;;;;;;14.97;59.76;96392.69;1790178;80;21083;-85
2022/05/22 09:14:20;;;;;;;5.75;2.02;;;;;;;14.95;59.06;96395.98;1782611;80;21042;-87
2022/05/22 09:16:57;;;;;;;3.25;1.47;;;;;;;15.00;59.42;96396.70;1769035;80;21499;-85
2022/05/22 09:19:31;;;;;;;4.42;1.90;;;;;;;15.07;59.24;96398.76;1781467;79;21050;-84
2022/05/22 09:22:21;;;;;;;3.40;1.40;;;;;;;15.13;58.53;96395.80;1795342;79;21001;-84
2022/05/22 09:25:13;;;;;;;3.12;1.25;;;;;;;15.21;58.80;96396.37;1730669;80;20983;-82
2022/05/22 09:28:14;;;;;;;7.42;1.52;;;;;;;15.25;57.59;96391.00;1795352;80;21403;-86
2022/05/22 09:31:17;;;;;;;6.45;1.70;;;;;;;15.18;57.28;96393.38;1777683;80;20995;-86
2022/05/22 09:34:07;;;;;;;2.98;1.50;;;;;;;15.47;57.00;96380.22;1765764;80;21000;-87
2022/05/22 09:36:50;;;;;;;2.67;1.20;;;;;;;15.97;56.67;96380.25;1765347;80;21026;-87
2022/05/22 09:39:31;;;;;;;3.12;1.75;;;;;;;16.24;55.91;96374.23;1764503;80;20970;-87
2022/05/22 09:42:21;;;;;;;5.10;1.27;;;;;;;16.44;56.35;96373.54;1765093;80;20971;-87
2022/05/22 09:45:18;;;;;;;5.15;1.65;;;;;;;16.59;56.07;96378.39;1769794;80;22078;-86
2022/05/22 09:47:58;;;;;;;4.60;1.50;;;;;;;16.45;55.39;96351.54;1774783;80;21031;-88
2022/05/22 09:50:38;;;;;;;3.42;1.20;;;;;;;16.50;55.20;96357.72;1773150;80;20967;-87
2022/05/22 09:53:30;;;;;;;3.17;1.20;;;;;;;16.41;54.58;96359.53;1776263;80;21012;-86
2022/05/22 09:56:01;;;;;;;3.72;1.22;;;;;;;16.69;53.91;96353.29;1780694;79;21358;-87
2022/05/22 09:58:50;;;;;;;3.87;1.40;;;;;;;16.75;53.23;96351.09;1796056;80;21084;-87
2022/05/22 10:01:36;;;;;;;4.90;1.50;;;;;;;16.60;52.49;96350.66;1796244;80;21357;-87
2022/05/22 10:04:33;;;;;;;6.12;2.17;;;;;;;16.46;52.13;96343.45;1782950;79;20944;-86
2022/05/22 10:07:27;;;;;;;5.55;1.70;;;;;;;16.38;52.95;96348.17;1794160;80;21008;-85
2022/05/22 10:10:04;;;;;;;2.95;1.05;;;;;;;16.32;53.33;96352.48;1765830;80;21003;-86
2022/05/22 10:13:00;;;;;;;5.00;1.20;;;;;;;16.14;52.22;96346.72;1745912;80;21490;-85
2022/05/22 10:15:43;;;;;;;3.83;1.50;;;;;;;16.32;53.92;96347.75;1779997;80;21288;-85
2022/05/22 10:18:21;;;;;;;3.42;1.27;;;;;;;16.30;51.50;96344.55;1770780;80;20983;-84
2022/05/22 10:21:18;;;;;;;2.50;0.88;;;;;;;16.38;52.53;96337.17;1797534;80;20979;-85
2022/05/22 10:24:12;;;;;;;2.85;1.02;;;;;;;16.54;52.64;96336.30;1798406;80;21479;-84
2022/05/22 10:27:21;;;;;;;3.58;0.90;;;;;;;16.50;50.98;96335.94;1797914;80;20999;-85
2022/05/22 10:30:00;;;;;;;3.70;1.20;;;;;;;16.58;50.24;96331.69;1798483;80;21334;-84
2022/05/22 10:32:43;;;;;;;4.55;0.95;;;;;;;16.67;50.71;96342.73;1798438;80;20932;-85
2022/05/22 10:35:47;;;;;;;3.85;1.20;;;;;;;16.78;51.19;96344.11;1798532;80;21019;-84
2022/05/22 10:38:25;;;;;;;7.58;1.10;;;;;;;16.90;51.15;96336.27;1797980;80;21054;-85
2022/05/22 10:43:45;;;;;;;55.45;31.82;;;;;;;17.31;49.40;96330.25;1777495;80;21036;-85
2022/05/22 10:46:12;;;;;;;4.65;2.30;;;;;;;17.43;49.19;96332.91;1798538;80;21358;-85
2022/05/22 10:48:56;;;;;;;4.10;1.70;;;;;;;17.17;48.35;96327.52;1798347;80;20995;-85
2022/05/22 10:51:28;;;;;;;2.90;1.85;;;;;;;16.98;48.56;96347.78;1798365;80;21080;-85
2022/05/22 10:54:00;;;;;;;4.22;1.20;;;;;;;16.80;48.70;96339.44;1798457;80;21023;-85
2022/05/22 10:56:34;;;;;;;2.80;1.45;;;;;;;16.76;49.44;96350.09;1798417;80;21386;-85
2022/05/22 10:59:04;;;;;;;2.70;1.20;;;;;;;16.77;49.97;96349.06;1798788;80;20920;-85
2022/05/22 11:01:39;;;;;;;2.37;1.10;;;;;;;16.83;49.20;96343.95;1767874;80;20994;-85
2022/05/22 11:04:11;;;;;;;3.70;1.20;;;;;;;16.74;49.17;96340.30;1767026;81;21034;-84
2022/05/22 11:06:56;;;;;;;3.20;1.00;;;;;;;16.73;50.10;96349.20;1766979;81;21349;-85
2022/05/22 11:09:29;;;;;;;3.33;1.75;;;;;;;16.75;49.51;96355.53;1766287;81;21006;-85
2022/05/22 11:12:16;;;;;;;5.53;1.60;;;;;;;16.91;49.21;96342.31;1794946;80;21035;-85
2022/05/22 11:14:42;;;;;;;3.10;1.10;;;;;;;16.75;49.03;96335.34;1787880;80;21070;-86
2022/05/22 11:17:12;;;;;;;3.40;1.30;;;;;;;16.84;49.54;96344.23;1789558;80;21063;-85
2022/05/22 11:19:40;;;;;;;3.62;1.60;;;;;;;16.98;48.82;96349.09;1789314;80;21004;-86
2022/05/22 11:22:37;;;;;;;4.67;1.22;;;;;;;16.91;48.63;96341.80;1789093;80;21012;-85
2022/05/22 11:25:34;;;;;;;2.55;0.90;;;;;;;17.05;49.15;96340.60;1789691;80;20992;-85
2022/05/22 11:28:29;;;;;;;3.87;1.30;;;;;;;17.51;50.55;96329.94;1734016;80;21070;-85
2022/05/22 11:31:38;;;;;;;4.37;1.00;;;;;;;17.80;48.79;96338.00;1789238;80;21049;-85
2022/05/22 11:34:30;;;;;;;3.72;1.10;;;;;;;17.72;47.52;96344.89;1786739;80;20995;-85
2022/05/22 11:37:04;;;;;;;2.00;1.10;;;;;;;17.69;48.12;96341.69;1789498;80;21040;-86
2022/05/22 11:40:01;;;;;;;1.90;1.20;;;;;;;17.76;48.74;96334.23;1766117;80;20960;-85
2022/05/22 11:42:34;;;;;;;7.60;3.50;;;;;;;18.01;48.66;96333.47;1756854;81;21507;-85
2022/05/22 11:45:36;;;;;;;2.50;1.35;;;;;;;18.19;47.57;96320.20;1782063;80;21003;-86
2022/05/22 11:48:25;;;;;;;3.45;1.40;;;;;;;18.00;47.93;96321.36;1787631;80;20940;-85
2022/05/22 11:51:02;;;;;;;5.30;2.52;;;;;;;17.75;47.65;96327.37;1779409;80;20954;-85
2022/05/22 11:54:01;;;;;;;9.83;4.30;;;;;;;17.46;48.15;96343.47;1787742;79;20951;-85
2022/05/22 11:56:57;;;;;;;3.60;1.07;;;;;;;17.31;48.61;96343.89;1781311;80;21351;-85
2022/05/22 12:00:05;;;;;;;4.83;1.10;;;;;;;17.23;48.30;96337.63;1771770;80;21023;-85